Time;durP1;ratioP1;P1;durP2;ratioP2;P2;SDS_P1;SDS_P2;PMS_P1;PMS_P2;Temp;Humidity;BMP_temperature;BMP_pressure;BME280_temperature;BME280_humidity;BME280_pressure;Samples;Min_cycle;Max_cycle;Signal;HPM_P1;HPM_P2
2023/03/04 00:01:41;;;;;;;13.65;1.73;;;5.50;99.90;;;;;;5050533;28;20037;-85
2023/03/04 00:04:06;;;;;;;15.15;1.90;;;5.50;99.90;;;;;;5050194;28;20098;-84
2023/03/04 00:06:32;;;;;;;11.82;2.05;;;5.60;99.90;;;;;;5051296;28;20041;-84
2023/03/04 00:08:58;;;;;;;9.80;1.73;;;5.60;99.90;;;;;;5050275;28;20040;-85
2023/03/04 00:11:23;;;;;;;11.63;2.47;;;5.60;99.90;;;;;;5033817;28;20530;-86
2023/03/04 00:13:49;;;;;;;12.65;2.22;;;5.60;99.90;;;;;;5050138;28;20040;-84
2023/03/04 00:16:15;;;;;;;9.10;1.75;;;5.60;99.90;;;;;;5049651;28;20574;-85
2023/03/04 00:18:40;;;;;;;8.50;1.60;;;5.50;99.90;;;;;;5044655;28;20033;-85
2023/03/04 00:21:06;;;;;;;8.60;1.92;;;5.50;99.90;;;;;;5048841;28;20126;-84
2023/03/04 00:23:31;;;;;;;14.57;2.25;;;5.50;99.90;;;;;;5050134;28;20171;-85
2023/03/04 00:25:57;;;;;;;12.80;1.83;;;5.50;99.90;;;;;;5033317;28;20045;-85
2023/03/04 00:28:22;;;;;;;11.38;1.92;;;5.50;99.90;;;;;;5049908;28;20458;-84
2023/03/04 00:30:48;;;;;;;7.85;1.67;;;5.60;99.90;;;;;;5049002;28;20033;-86
2023/03/04 00:33:14;;;;;;;9.50;1.88;;;5.60;99.90;;;;;;5051019;28;20037;-85
2023/03/04 00:35:39;;;;;;;6.55;1.60;;;5.60;99.90;;;;;;5049683;28;20095;-84
2023/03/04 00:38:05;;;;;;;10.18;1.95;;;5.60;99.90;;;;;;5049750;28;20037;-84
2023/03/04 00:40:30;;;;;;;8.10;1.95;;;5.60;99.90;;;;;;5049805;28;20052;-84
2023/03/04 00:42:56;;;;;;;6.72;1.50;;;5.60;99.90;;;;;;5048874;28;20389;-84
2023/03/04 00:45:21;;;;;;;11.23;2.20;;;5.60;99.90;;;;;;5048145;28;20106;-85
2023/03/04 00:47:47;;;;;;;10.35;1.70;;;5.50;99.90;;;;;;5050370;28;20503;-85
2023/03/04 00:50:12;;;;;;;8.90;1.85;;;5.60;99.90;;;;;;5033996;28;20044;-84
2023/03/04 00:52:38;;;;;;;9.55;1.75;;;5.50;99.90;;;;;;5033630;28;20036;-85
2023/03/04 00:55:05;;;;;;;18.73;2.28;;;5.50;99.90;;;;;;5049333;28;20124;-84
2023/03/04 00:57:30;;;;;;;10.15;1.95;;;5.50;99.90;;;;;;5049486;28;20072;-85
2023/03/04 00:59:56;;;;;;;15.50;2.45;;;5.50;99.90;;;;;;5049493;28;20543;-85
2023/03/04 01:02:21;;;;;;;19.00;2.20;;;5.50;99.90;;;;;;5032788;28;20144;-84
2023/03/04 01:04:47;;;;;;;12.73;1.85;;;5.50;99.90;;;;;;5041954;28;20447;-84
2023/03/04 01:07:12;;;;;;;10.50;1.98;;;5.50;99.90;;;;;;5049627;28;20036;-84
2023/03/04 01:09:38;;;;;;;15.40;2.13;;;5.40;99.90;;;;;;5045246;28;20037;-84
2023/03/04 01:12:03;;;;;;;10.15;1.45;;;5.50;99.90;;;;;;5049280;28;20037;-85
2023/03/04 01:14:29;;;;;;;15.35;2.08;;;5.50;99.90;;;;;;5029961;28;20106;-84
2023/03/04 01:16:55;;;;;;;8.38;1.70;;;5.50;99.90;;;;;;5032646;28;20044;-84
2023/03/04 01:19:20;;;;;;;12.98;2.05;;;5.50;99.90;;;;;;5048097;28;20033;-84
2023/03/04 01:21:46;;;;;;;11.95;1.80;;;5.50;99.90;;;;;;5049551;28;20075;-84
2023/03/04 01:24:11;;;;;;;12.27;2.28;;;5.40;99.90;;;;;;5048098;28;20124;-84
2023/03/04 01:26:37;;;;;;;10.05;1.58;;;5.40;99.90;;;;;;5048039;28;20033;-84
2023/03/04 01:29:03;;;;;;;12.70;1.52;;;5.50;99.90;;;;;;5032748;28;20044;-84
2023/03/04 01:31:29;;;;;;;13.98;1.85;;;5.40;99.90;;;;;;5047172;28;20044;-85
2023/03/04 01:33:54;;;;;;;11.70;1.50;;;5.40;99.90;;;;;;5048761;28;20123;-84
2023/03/04 01:36:20;;;;;;;9.68;2.15;;;5.40;99.90;;;;;;5041927;28;20112;-83
2023/03/04 01:38:45;;;;;;;8.00;1.40;;;5.50;99.90;;;;;;5049026;28;20039;-84
2023/03/04 01:41:13;;;;;;;9.43;1.60;;;5.60;99.90;;;;;;5047763;28;20146;-84
2023/03/04 01:43:38;;;;;;;9.05;1.50;;;5.50;99.90;;;;;;5032615;28;20110;-84
2023/03/04 01:46:05;;;;;;;12.20;2.13;;;5.50;99.90;;;;;;5047635;28;20309;-84
2023/03/04 01:48:35;;;;;;;8.10;1.60;;;5.50;99.90;;;;;;5048129;28;20063;-84
2023/03/04 01:51:05;;;;;;;8.07;1.80;;;5.50;99.90;;;;;;5049929;28;20075;-84
2023/03/04 01:53:32;;;;;;;14.88;2.05;;;5.50;99.90;;;;;;5045923;28;20066;-85
2023/03/04 01:56:19;;;;;;;15.77;1.98;;;5.50;99.90;;;;;;5043259;28;20048;-84
2023/03/04 01:59:04;;;;;;;13.70;2.55;;;5.40;99.90;;;;;;5048710;28;20447;-84
2023/03/04 02:01:30;;;;;;;11.77;1.95;;;5.40;99.90;;;;;;5040262;28;20064;-86
2023/03/04 02:03:55;;;;;;;10.60;1.70;;;5.40;99.90;;;;;;5034590;28;20508;-84
2023/03/04 02:06:21;;;;;;;9.15;1.80;;;5.30;99.90;;;;;;5053153;28;20043;-84
2023/03/04 02:08:46;;;;;;;15.85;1.90;;;5.30;99.90;;;;;;5046725;28;20037;-85
2023/03/04 02:11:12;;;;;;;8.10;1.92;;;5.30;99.90;;;;;;5050829;28;20188;-84
2023/03/04 02:13:37;;;;;;;11.20;1.98;;;5.20;99.90;;;;;;5053536;28;20033;-86
2023/03/04 02:16:03;;;;;;;8.48;1.63;;;5.20;99.90;;;;;;5035216;28;20061;-84
2023/03/04 02:18:29;;;;;;;8.13;1.40;;;5.20;99.90;;;;;;5050740;28;20037;-85
2023/03/04 02:21:14;;;;;;;8.32;1.60;;;5.20;99.90;;;;;;5046141;28;20063;-84
2023/03/04 02:23:57;;;;;;;7.88;1.35;;;5.20;99.90;;;;;;5051671;28;20037;-84
2023/03/04 02:26:26;;;;;;;6.05;1.55;;;5.20;99.90;;;;;;5050295;28;20053;-84
2023/03/04 02:28:54;;;;;;;12.55;2.33;;;5.30;99.90;;;;;;5052236;28;20041;-85
2023/03/04 02:31:34;;;;;;;5.85;1.52;;;5.30;99.90;;;;;;5036577;28;20037;-84
2023/03/04 02:34:03;;;;;;;11.73;1.63;;;5.30;99.90;;;;;;5035826;28;20037;-84
2023/03/04 02:36:30;;;;;;;13.57;1.83;;;5.30;99.90;;;;;;5033080;28;20042;-84
2023/03/04 02:39:01;;;;;;;11.63;2.00;;;5.30;99.90;;;;;;5052885;28;20068;-84
2023/03/04 02:41:29;;;;;;;9.48;1.65;;;5.30;99.90;;;;;;5048843;28;20037;-85
2023/03/04 02:43:55;;;;;;;9.48;1.95;;;5.30;99.90;;;;;;5052269;28;20041;-85
2023/03/04 02:46:22;;;;;;;9.57;1.83;;;5.30;99.90;;;;;;5049275;28;20095;-85
2023/03/04 02:48:49;;;;;;;7.97;1.35;;;5.30;99.90;;;;;;5063122;28;20040;-85
2023/03/04 02:51:15;;;;;;;10.85;1.70;;;5.30;99.90;;;;;;5051657;28;20037;-85
2023/03/04 02:53:40;;;;;;;13.38;1.88;;;5.30;99.90;;;;;;5049402;28;20075;-85
2023/03/04 02:56:06;;;;;;;7.00;1.67;;;5.30;99.90;;;;;;5051886;28;20045;-84
2023/03/04 02:58:32;;;;;;;7.95;1.83;;;5.30;99.90;;;;;;5050414;28;20488;-84
2023/03/04 03:00:58;;;;;;;9.15;1.73;;;5.30;99.90;;;;;;5030390;28;20045;-85
2023/03/04 03:03:23;;;;;;;9.13;1.35;;;5.40;99.90;;;;;;5045588;28;20042;-85
2023/03/04 03:05:49;;;;;;;10.45;2.10;;;5.30;99.90;;;;;;5049889;28;20393;-85
2023/03/04 03:08:15;;;;;;;10.63;1.80;;;5.30;99.90;;;;;;5033794;28;20512;-84
2023/03/04 03:10:40;;;;;;;11.07;2.05;;;5.30;99.90;;;;;;5050449;28;20108;-84
2023/03/04 03:13:06;;;;;;;8.48;1.45;;;5.30;99.90;;;;;;5051444;28;20443;-85
2023/03/04 03:15:31;;;;;;;7.32;1.52;;;5.30;99.90;;;;;;5041683;28;20519;-84
2023/03/04 03:17:57;;;;;;;11.07;1.83;;;5.30;99.90;;;;;;5050675;28;20099;-84
2023/03/04 03:20:23;;;;;;;16.00;2.45;;;5.30;99.90;;;;;;5048749;28;20040;-84
2023/03/04 03:22:49;;;;;;;8.18;1.63;;;5.30;99.90;;;;;;5033818;28;20044;-84
2023/03/04 03:25:15;;;;;;;6.70;1.33;;;5.40;99.90;;;;;;5026490;28;20501;-84
2023/03/04 03:27:41;;;;;;;8.52;1.60;;;5.30;99.90;;;;;;5050069;28;20082;-85
2023/03/04 03:30:09;;;;;;;10.02;2.25;;;5.30;99.90;;;;;;5048315;28;20033;-85
2023/03/04 03:32:35;;;;;;;10.18;1.50;;;5.40;99.90;;;;;;5049553;28;20075;-84
2023/03/04 03:35:02;;;;;;;10.60;1.52;;;5.30;99.90;;;;;;5049730;28;20497;-83
2023/03/04 03:37:27;;;;;;;10.70;2.17;;;5.30;99.90;;;;;;5033935;28;20072;-84
2023/03/04 03:39:53;;;;;;;14.00;2.20;;;5.40;99.90;;;;;;5047145;28;20083;-84
2023/03/04 03:42:18;;;;;;;9.27;1.42;;;5.40;99.90;;;;;;5033585;28;20040;-85
2023/03/04 03:44:44;;;;;;;8.45;1.63;;;5.30;99.90;;;;;;5049372;28;20041;-85
2023/03/04 03:47:09;;;;;;;10.63;2.15;;;5.30;99.90;;;;;;5033401;28;20037;-84
2023/03/04 03:49:35;;;;;;;9.50;1.60;;;5.30;99.90;;;;;;5029356;28;20032;-84
2023/03/04 03:52:00;;;;;;;8.35;1.60;;;5.30;99.90;;;;;;5026436;28;20412;-85
2023/03/04 03:54:26;;;;;;;7.60;1.55;;;5.30;99.90;;;;;;5047934;28;20138;-84
2023/03/04 03:56:51;;;;;;;9.48;1.52;;;5.30;99.90;;;;;;4992025;28;1057197;-84
2023/03/04 03:59:17;;;;;;;11.20;2.10;;;5.30;99.90;;;;;;5046004;28;20047;-84
2023/03/04 04:01:42;;;;;;;12.15;1.77;;;5.30;99.90;;;;;;5045818;28;20044;-84
2023/03/04 04:04:08;;;;;;;5.07;1.40;;;5.30;99.90;;;;;;5049819;28;20140;-84
2023/03/04 04:06:33;;;;;;;8.00;1.40;;;5.30;99.90;;;;;;5050044;28;20423;-84
2023/03/04 04:08:59;;;;;;;14.00;1.75;;;5.30;99.90;;;;;;5050835;28;20033;-84
2023/03/04 04:11:25;;;;;;;11.80;2.05;;;5.30;99.90;;;;;;5044002;28;20078;-84
2023/03/04 04:13:50;;;;;;;8.15;1.90;;;5.30;99.90;;;;;;5034346;28;20044;-83
2023/03/04 04:16:16;;;;;;;13.27;1.88;;;5.30;99.90;;;;;;5048996;28;20041;-84
2023/03/04 04:18:41;;;;;;;10.57;1.33;;;5.40;99.90;;;;;;5051038;28;20037;-84
2023/03/04 04:21:08;;;;;;;7.90;1.65;;;5.20;99.90;;;;;;5045817;28;20037;-83
2023/03/04 04:23:33;;;;;;;10.00;1.42;;;5.30;99.90;;;;;;5034234;28;20060;-85
2023/03/04 04:25:59;;;;;;;7.40;1.40;;;5.30;99.90;;;;;;5047524;28;20590;-85
2023/03/04 04:28:25;;;;;;;7.22;1.40;;;5.30;99.90;;;;;;5027269;28;20209;-84
2023/03/04 04:30:50;;;;;;;9.00;1.60;;;5.40;99.90;;;;;;5027698;28;20059;-84
2023/03/04 04:33:16;;;;;;;8.68;1.60;;;5.30;99.90;;;;;;5030554;28;20516;-85
2023/03/04 04:35:42;;;;;;;9.52;1.60;;;5.30;99.90;;;;;;5044467;28;20508;-83
2023/03/04 04:38:08;;;;;;;6.10;1.60;;;5.30;99.90;;;;;;5050132;28;20090;-84
2023/03/04 04:40:34;;;;;;;6.03;1.50;;;5.30;99.90;;;;;;5024256;28;20091;-85
2023/03/04 04:42:59;;;;;;;13.10;2.08;;;5.30;99.90;;;;;;5034030;28;20041;-84
2023/03/04 04:45:25;;;;;;;6.03;1.38;;;5.20;99.90;;;;;;5029423;28;20041;-84
2023/03/04 04:47:52;;;;;;;10.40;1.77;;;5.30;99.90;;;;;;5033126;28;20044;-84
2023/03/04 04:50:18;;;;;;;7.00;1.60;;;5.30;99.90;;;;;;5049700;28;20544;-85
2023/03/04 04:52:43;;;;;;;10.57;1.40;;;5.30;99.90;;;;;;5049487;28;20117;-84
2023/03/04 04:55:09;;;;;;;6.80;1.35;;;5.30;99.90;;;;;;5050107;28;20041;-84
2023/03/04 04:57:36;;;;;;;7.97;1.77;;;5.30;99.90;;;;;;5049430;28;20083;-84
2023/03/04 05:00:04;;;;;;;9.98;1.67;;;5.30;99.90;;;;;;5044603;28;20032;-84
2023/03/04 05:02:30;;;;;;;11.10;1.27;;;5.30;99.90;;;;;;5049504;28;20037;-86
2023/03/04 05:04:55;;;;;;;9.20;1.55;;;5.30;99.90;;;;;;5047495;28;20037;-85
2023/03/04 05:07:21;;;;;;;9.13;1.80;;;5.30;99.90;;;;;;5032627;28;20454;-84
2023/03/04 05:09:46;;;;;;;9.23;1.20;;;5.30;99.90;;;;;;5027052;28;20469;-85
2023/03/04 05:12:12;;;;;;;13.02;2.58;;;5.20;99.90;;;;;;5033055;28;20033;-85
2023/03/04 05:14:37;;;;;;;8.80;1.65;;;5.20;99.90;;;;;;5049750;28;20040;-84
2023/03/04 05:17:03;;;;;;;9.93;2.47;;;5.20;99.90;;;;;;5048285;28;20044;-84
2023/03/04 05:19:29;;;;;;;17.10;1.55;;;5.20;99.90;;;;;;5049030;28;20041;-84
2023/03/04 05:21:54;;;;;;;11.32;1.60;;;5.20;99.90;;;;;;5043772;28;20148;-84
2023/03/04 05:24:20;;;;;;;7.63;1.17;;;5.20;99.90;;;;;;5048569;28;20060;-84
2023/03/04 05:26:46;;;;;;;7.43;1.10;;;5.20;99.90;;;;;;5048992;28;20047;-85
2023/03/04 05:29:11;;;;;;;7.88;1.33;;;5.20;99.90;;;;;;5032591;28;20036;-85
2023/03/04 05:31:37;;;;;;;9.95;1.73;;;5.20;99.90;;;;;;5048914;28;20040;-85
2023/03/04 05:34:02;;;;;;;7.10;1.13;;;5.20;99.90;;;;;;5043747;28;20448;-85
2023/03/04 05:36:28;;;;;;;6.18;2.00;;;5.20;99.90;;;;;;5048733;28;20334;-85
2023/03/04 05:38:53;;;;;;;7.55;1.98;;;5.20;99.90;;;;;;5048295;28;20127;-85
2023/03/04 05:41:21;;;;;;;9.68;1.20;;;5.20;99.90;;;;;;5048234;28;20067;-84
2023/03/04 05:43:47;;;;;;;10.40;1.40;;;5.20;99.90;;;;;;5012121;28;20071;-85
2023/03/04 05:46:15;;;;;;;5.80;1.10;;;5.30;99.90;;;;;;5029625;28;20037;-84
2023/03/04 05:48:42;;;;;;;12.10;1.75;;;5.30;99.90;;;;;;5046513;28;20036;-84
2023/03/04 05:51:09;;;;;;;9.45;1.10;;;5.30;99.90;;;;;;5048627;28;20032;-84
2023/03/04 05:53:38;;;;;;;6.72;1.10;;;5.30;99.90;;;;;;5048565;28;20040;-85
2023/03/04 05:56:12;;;;;;;6.05;1.23;;;5.30;99.90;;;;;;5047252;28;20549;-85
2023/03/04 05:58:38;;;;;;;9.55;1.23;;;5.30;99.90;;;;;;5017068;28;20427;-85
2023/03/04 06:01:04;;;;;;;6.72;1.52;;;5.30;99.90;;;;;;5021924;28;20034;-85
2023/03/04 06:03:30;;;;;;;6.10;1.40;;;5.30;99.90;;;;;;5039240;28;20125;-84
2023/03/04 06:05:56;;;;;;;8.98;1.38;;;5.30;99.90;;;;;;5040797;28;20495;-84
2023/03/04 06:08:21;;;;;;;8.95;1.48;;;5.30;99.90;;;;;;5049069;28;20041;-84
2023/03/04 06:10:47;;;;;;;10.23;1.60;;;5.30;99.90;;;;;;5048549;28;20564;-85
2023/03/04 06:13:12;;;;;;;8.98;2.00;;;5.30;99.90;;;;;;5023312;28;20045;-85
2023/03/04 06:15:39;;;;;;;9.18;1.52;;;5.40;99.90;;;;;;5023005;28;20496;-84
2023/03/04 06:18:06;;;;;;;12.50;1.90;;;5.30;99.90;;;;;;5029810;28;20037;-84
2023/03/04 06:20:31;;;;;;;9.25;1.83;;;5.60;99.90;;;;;;5034313;28;20132;-84
2023/03/04 06:22:57;;;;;;;7.55;1.48;;;5.30;99.90;;;;;;5033816;28;20153;-84
2023/03/04 06:25:23;;;;;;;10.27;2.10;;;5.30;99.90;;;;;;5045785;28;20075;-84
2023/03/04 06:27:49;;;;;;;6.75;1.17;;;5.30;99.90;;;;;;5030298;28;20132;-84
2023/03/04 06:30:15;;;;;;;7.25;1.90;;;5.40;99.90;;;;;;5046410;28;20037;-85
2023/03/04 06:32:43;;;;;;;7.30;2.15;;;5.30;99.90;;;;;;5030013;28;20036;-85
2023/03/04 06:35:09;;;;;;;7.22;1.98;;;5.30;99.90;;;;;;5046151;28;20063;-84
2023/03/04 06:37:35;;;;;;;14.15;1.98;;;5.30;99.90;;;;;;5047745;28;20044;-84
2023/03/04 06:40:00;;;;;;;8.90;1.70;;;5.30;99.90;;;;;;5027644;28;20413;-84
2023/03/04 06:42:26;;;;;;;8.65;1.83;;;5.30;99.90;;;;;;5049498;28;20041;-85
2023/03/04 06:44:51;;;;;;;5.40;1.10;;;5.30;99.90;;;;;;5048825;28;20051;-84
2023/03/04 06:47:17;;;;;;;9.13;1.90;;;5.30;99.90;;;;;;5041372;28;20041;-85
2023/03/04 06:49:43;;;;;;;15.30;1.77;;;5.30;99.90;;;;;;5050881;28;20033;-84
2023/03/04 06:52:10;;;;;;;11.40;1.70;;;5.30;99.90;;;;;;5053204;28;20041;-85
2023/03/04 06:54:36;;;;;;;8.18;1.17;;;5.40;99.90;;;;;;5034266;28;20492;-85
2023/03/04 06:57:02;;;;;;;3.55;1.08;;;5.30;99.90;;;;;;5043571;28;20037;-84
2023/03/04 06:59:27;;;;;;;6.05;1.55;;;5.30;99.90;;;;;;5043202;28;20056;-85
2023/03/04 07:01:53;;;;;;;7.30;1.65;;;5.30;99.90;;;;;;5050908;28;20044;-85
2023/03/04 07:04:19;;;;;;;9.63;1.23;;;5.40;99.90;;;;;;5049904;28;20041;-85
2023/03/04 07:06:44;;;;;;;8.43;1.58;;;5.40;99.90;;;;;;5033574;28;20044;-85
2023/03/04 07:09:10;;;;;;;4.78;1.00;;;5.40;99.90;;;;;;5051315;28;20086;-85
2023/03/04 07:11:35;;;;;;;9.27;1.38;;;5.40;99.90;;;;;;5052527;28;20048;-85
2023/03/04 07:14:01;;;;;;;10.65;1.10;;;5.50;99.90;;;;;;5049265;28;20048;-83
2023/03/04 07:16:27;;;;;;;9.18;1.55;;;5.50;99.90;;;;;;5041973;28;20048;-85
2023/03/04 07:18:52;;;;;;;7.10;1.45;;;5.60;99.90;;;;;;5040385;28;20036;-83
2023/03/04 07:21:18;;;;;;;12.02;1.58;;;5.60;99.90;;;;;;5042190;28;20489;-84
2023/03/04 07:23:44;;;;;;;10.65;1.45;;;5.60;99.90;;;;;;5023095;28;20040;-85
2023/03/04 07:26:09;;;;;;;10.68;1.65;;;5.60;99.90;;;;;;5051717;28;20041;-85
2023/03/04 07:28:36;;;;;;;7.00;1.45;;;5.50;99.90;;;;;;5044007;28;20480;-84
2023/03/04 07:31:18;;;;;;;7.85;1.17;;;5.50;99.90;;;;;;5030267;28;20040;-85
2023/03/04 07:33:43;;;;;;;6.63;1.13;;;5.50;99.90;;;;;;5051688;28;20033;-85
2023/03/04 07:36:10;;;;;;;5.95;1.00;;;5.50;99.90;;;;;;5047969;28;20124;-85
2023/03/04 07:38:35;;;;;;;11.77;1.30;;;5.40;99.90;;;;;;5034280;28;20392;-85
2023/03/04 07:41:01;;;;;;;3.97;0.90;;;5.50;99.90;;;;;;5051774;28;20052;-85
2023/03/04 07:43:27;;;;;;;8.50;1.13;;;5.60;99.90;;;;;;5049762;28;20099;-84
2023/03/04 07:45:58;;;;;;;5.90;1.30;;;5.70;99.90;;;;;;5051427;28;20033;-85
2023/03/04 07:48:23;;;;;;;8.50;1.30;;;5.70;99.90;;;;;;5047671;28;20041;-84
2023/03/04 07:50:49;;;;;;;6.90;1.10;;;5.80;99.90;;;;;;5034244;28;20412;-84
2023/03/04 07:53:14;;;;;;;7.13;1.20;;;5.80;99.90;;;;;;5035131;28;20037;-85
2023/03/04 07:55:40;;;;;;;8.95;1.52;;;5.90;99.90;;;;;;5051211;28;20423;-84
2023/03/04 07:58:05;;;;;;;12.77;2.13;;;5.90;99.90;;;;;;5047821;28;20518;-86
2023/03/04 08:00:31;;;;;;;10.63;1.67;;;5.90;99.90;;;;;;5030785;28;20550;-85
2023/03/04 08:02:56;;;;;;;11.18;1.60;;;5.90;99.90;;;;;;5042706;28;20107;-84
2023/03/04 08:05:22;;;;;;;10.73;1.90;;;6.00;99.90;;;;;;5045756;28;20037;-84
2023/03/04 08:07:47;;;;;;;15.30;2.70;;;6.00;99.90;;;;;;5045047;28;20496;-84
2023/03/04 08:10:13;;;;;;;13.02;2.05;;;6.00;99.90;;;;;;5043940;28;20040;-85
2023/03/04 08:12:39;;;;;;;15.50;2.72;;;6.00;99.90;;;;;;5043248;28;20087;-87
2023/03/04 08:15:05;;;;;;;16.33;2.45;;;5.90;99.90;;;;;;5022941;28;20037;-86
2023/03/04 08:17:30;;;;;;;18.13;2.85;;;5.90;99.90;;;;;;5033873;28;20044;-85
2023/03/04 08:19:56;;;;;;;14.40;2.42;;;5.90;99.90;;;;;;5051155;28;20507;-85
2023/03/04 08:22:21;;;;;;;20.95;3.38;;;5.80;99.90;;;;;;5034219;28;20039;-85
2023/03/04 08:24:47;;;;;;;15.77;2.20;;;5.80;99.90;;;;;;5050357;28;20052;-85
2023/03/04 08:27:12;;;;;;;15.95;2.50;;;5.80;99.90;;;;;;5025487;28;20039;-85
2023/03/04 08:29:38;;;;;;;18.25;2.67;;;5.80;99.90;;;;;;5050988;28;20063;-86
2023/03/04 08:32:04;;;;;;;17.50;3.35;;;5.90;99.90;;;;;;5051200;28;20036;-84
2023/03/04 08:34:30;;;;;;;17.67;2.75;;;5.90;99.90;;;;;;5050249;28;20095;-85
2023/03/04 08:36:55;;;;;;;14.13;2.50;;;5.90;99.90;;;;;;5044078;28;20193;-84
2023/03/04 08:39:21;;;;;;;12.98;2.63;;;6.00;99.90;;;;;;5045323;28;20071;-83
2023/03/04 08:41:47;;;;;;;18.27;2.50;;;6.00;99.90;;;;;;5042796;28;20045;-84
2023/03/04 08:44:13;;;;;;;13.00;2.92;;;6.00;99.90;;;;;;5036093;28;20382;-84
2023/03/04 08:46:41;;;;;;;16.55;1.88;;;6.00;99.90;;;;;;5039756;28;20040;-84
2023/03/04 08:49:07;;;;;;;14.57;2.17;;;6.10;99.90;;;;;;5019059;28;20037;-84
2023/03/04 08:51:34;;;;;;;11.85;2.30;;;6.10;99.90;;;;;;5039921;28;20057;-84
2023/03/04 08:54:04;;;;;;;14.90;2.83;;;6.10;99.90;;;;;;5040612;28;20041;-84
2023/03/04 08:56:29;;;;;;;12.55;2.20;;;6.10;99.90;;;;;;5033484;28;20041;-84
2023/03/04 08:58:55;;;;;;;13.95;2.72;;;6.00;99.90;;;;;;5044027;28;20464;-85
2023/03/04 09:01:20;;;;;;;11.85;1.98;;;6.00;99.90;;;;;;5041101;28;20036;-85
2023/03/04 09:03:46;;;;;;;19.02;2.88;;;6.00;99.90;;;;;;5038210;28;20062;-84
2023/03/04 09:06:14;;;;;;;13.90;2.80;;;5.90;99.90;;;;;;5024423;28;20041;-84
2023/03/04 09:08:40;;;;;;;16.02;2.55;;;6.00;99.90;;;;;;5050057;28;20040;-85
2023/03/04 09:11:06;;;;;;;15.20;2.40;;;6.00;99.90;;;;;;5048800;28;20492;-84
2023/03/04 09:13:32;;;;;;;17.50;2.30;;;6.10;99.90;;;;;;5047221;28;20044;-84
2023/03/04 09:15:59;;;;;;;13.15;2.22;;;6.20;99.90;;;;;;5031144;28;20458;-85
2023/03/04 09:18:25;;;;;;;13.88;2.33;;;6.20;99.90;;;;;;5048203;28;20066;-84
2023/03/04 09:20:50;;;;;;;12.45;2.47;;;6.20;99.90;;;;;;5031653;28;20049;-85
2023/03/04 09:23:17;;;;;;;14.27;2.10;;;6.20;99.90;;;;;;5031327;28;20479;-85
2023/03/04 09:25:45;;;;;;;15.20;2.20;;;6.30;99.90;;;;;;5049674;28;20120;-85
2023/03/04 09:28:11;;;;;;;15.18;1.90;;;6.40;99.90;;;;;;5033080;28;20044;-84
2023/03/04 09:30:36;;;;;;;14.38;2.03;;;6.40;99.90;;;;;;5049540;28;20029;-85
2023/03/04 09:33:02;;;;;;;14.40;2.28;;;6.40;99.90;;;;;;5049688;28;20173;-85
2023/03/04 09:35:28;;;;;;;12.93;2.08;;;6.50;99.90;;;;;;5032665;28;20076;-85
2023/03/04 09:37:54;;;;;;;14.32;1.98;;;6.60;99.90;;;;;;5033086;28;20040;-84
2023/03/04 09:40:32;;;;;;;15.57;1.83;;;6.60;99.90;;;;;;5041171;28;20045;-85
2023/03/04 09:43:06;;;;;;;11.73;1.70;;;6.60;99.90;;;;;;5041615;28;20496;-84
2023/03/04 09:45:43;;;;;;;9.88;1.25;;;6.60;99.90;;;;;;5033963;28;20053;-85
2023/03/04 09:48:14;;;;;;;10.77;1.45;;;6.50;99.90;;;;;;5036064;28;20075;-84
2023/03/04 09:50:49;;;;;;;10.68;1.58;;;6.50;99.90;;;;;;5043137;28;20044;-84
2023/03/04 09:53:29;;;;;;;10.93;1.83;;;6.50;99.90;;;;;;5022377;28;20036;-84
2023/03/04 09:55:55;;;;;;;9.27;1.33;;;6.50;99.90;;;;;;5023512;28;20042;-85
2023/03/04 09:58:44;;;;;;;8.15;1.15;;;6.50;99.90;;;;;;5017877;28;20029;-84
2023/03/04 10:01:25;;;;;;;8.50;1.15;;;6.50;99.90;;;;;;5049211;28;20056;-84
2023/03/04 10:03:56;;;;;;;10.20;1.02;;;6.60;99.90;;;;;;5041299;28;20047;-84
2023/03/04 10:06:22;;;;;;;6.53;1.08;;;6.60;99.90;;;;;;5036158;28;20052;-84
2023/03/04 10:08:53;;;;;;;8.65;1.65;;;6.70;99.90;;;;;;5045569;28;20029;-84
2023/03/04 10:11:43;;;;;;;7.35;1.35;;;6.80;99.90;;;;;;5041621;28;20065;-84
2023/03/04 10:14:21;;;;;;;8.13;1.40;;;6.80;99.90;;;;;;5038811;28;20098;-84
2023/03/04 10:17:10;;;;;;;7.32;1.02;;;6.90;99.90;;;;;;5043695;28;20045;-85
2023/03/04 10:19:54;;;;;;;11.13;1.83;;;7.00;99.90;;;;;;5022622;28;20069;-84
2023/03/04 10:22:42;;;;;;;11.25;2.20;;;7.00;99.90;;;;;;5039360;28;20037;-84
2023/03/04 10:25:21;;;;;;;13.50;1.75;;;7.00;99.90;;;;;;5018705;28;20079;-83
2023/03/04 10:27:55;;;;;;;11.15;1.92;;;7.00;99.90;;;;;;5052846;28;20066;-84
2023/03/04 10:30:31;;;;;;;8.15;1.90;;;6.90;99.90;;;;;;5053008;28;20139;-84
2023/03/04 10:32:57;;;;;;;17.05;2.33;;;6.90;99.90;;;;;;5053176;28;20029;-83
2023/03/04 10:35:32;;;;;;;10.07;1.88;;;6.90;99.90;;;;;;5036220;28;20041;-84
2023/03/04 10:38:02;;;;;;;13.07;1.90;;;6.80;99.90;;;;;;5052680;28;20048;-84
2023/03/04 10:40:27;;;;;;;14.07;2.13;;;6.70;99.90;;;;;;5036200;28;20056;-85
2023/03/04 10:42:54;;;;;;;10.30;1.83;;;6.70;99.90;;;;;;5045780;28;20045;-84
2023/03/04 10:45:22;;;;;;;13.65;2.75;;;6.80;99.90;;;;;;5044109;28;20033;-84
2023/03/04 10:47:55;;;;;;;15.80;2.38;;;6.80;99.90;;;;;;5052864;28;20138;-84
2023/03/04 10:50:27;;;;;;;17.90;2.83;;;6.70;99.90;;;;;;5052360;28;20036;-84
2023/03/04 10:52:54;;;;;;;14.20;3.03;;;6.80;99.90;;;;;;5052598;28;20401;-84
2023/03/04 10:55:27;;;;;;;17.05;2.70;;;7.00;99.90;;;;;;5052210;28;20116;-84
2023/03/04 10:58:02;;;;;;;15.68;2.60;;;7.00;99.90;;;;;;5035837;28;20037;-84
2023/03/04 11:00:33;;;;;;;14.65;2.10;;;7.10;99.90;;;;;;5052434;28;20052;-84
2023/03/04 11:03:22;;;;;;;13.93;2.75;;;7.20;99.90;;;;;;5052448;28;20079;-84
2023/03/04 11:05:48;;;;;;;9.90;1.80;;;7.30;99.90;;;;;;5052126;28;20416;-84
2023/03/04 11:08:21;;;;;;;14.68;2.30;;;7.30;99.90;;;;;;5052490;28;20037;-84
2023/03/04 11:10:50;;;;;;;12.73;2.20;;;7.20;99.90;;;;;;5052362;28;20122;-84
2023/03/04 11:13:19;;;;;;;9.93;1.98;;;7.30;99.90;;;;;;5035482;28;20033;-84
2023/03/04 11:16:00;;;;;;;10.43;1.88;;;7.30;99.90;;;;;;5048662;28;20040;-83
2023/03/04 11:18:42;;;;;;;8.90;1.83;;;7.30;99.90;;;;;;5050274;28;20036;-84
2023/03/04 11:21:17;;;;;;;13.73;2.03;;;7.30;99.90;;;;;;5048830;28;20041;-84
2023/03/04 11:23:52;;;;;;;15.40;2.47;;;7.30;99.90;;;;;;5044932;28;20036;-82
2023/03/04 11:26:25;;;;;;;13.60;2.92;;;7.40;99.90;;;;;;5031052;28;20069;-83
2023/03/04 11:28:55;;;;;;;14.03;2.20;;;7.40;99.90;;;;;;5054057;28;20044;-84
2023/03/04 11:31:26;;;;;;;12.07;2.20;;;7.50;99.90;;;;;;5051995;28;20039;-84
2023/03/04 11:34:07;;;;;;;7.70;1.83;;;7.60;99.90;;;;;;5052025;28;20041;-83
2023/03/04 11:37:09;;;;;;;11.07;2.15;;;7.80;99.90;;;;;;5050461;28;20512;-83
2023/03/04 11:39:43;;;;;;;10.38;2.40;;;7.90;99.90;;;;;;5024566;28;20045;-83
2023/03/04 11:42:54;;;;;;;7.57;1.70;;;8.00;99.90;;;;;;5052574;28;20056;-82
2023/03/04 11:45:43;;;;;;;9.95;1.70;;;7.90;99.90;;;;;;5049027;28;20076;-83
2023/03/04 11:48:35;;;;;;;10.75;1.98;;;8.00;99.90;;;;;;5051139;28;20561;-83
2023/03/04 11:51:36;;;;;;;15.15;2.13;;;8.20;99.90;;;;;;5049351;28;20411;-83
2023/03/04 11:54:43;;;;;;;11.98;2.28;;;7.90;99.90;;;;;;5051300;28;20041;-83
2023/03/04 11:57:22;;;;;;;11.20;2.05;;;7.80;99.90;;;;;;5047301;28;20043;-82
2023/03/04 12:00:14;;;;;;;12.60;1.85;;;7.50;99.90;;;;;;5045147;28;20114;-83
2023/03/04 12:03:22;;;;;;;9.48;1.88;;;7.40;99.90;;;;;;5050432;28;20095;-83
2023/03/04 12:06:08;;;;;;;13.43;2.13;;;7.20;99.90;;;;;;5048748;28;20040;-83
2023/03/04 12:08:46;;;;;;;17.10;2.80;;;7.20;99.90;;;;;;5053608;28;20118;-82
2023/03/04 12:11:26;;;;;;;13.85;2.42;;;7.40;99.90;;;;;;5047785;28;20041;-82
2023/03/04 12:14:15;;;;;;;11.63;2.38;;;7.40;99.90;;;;;;5050022;28;20572;-82
2023/03/04 12:16:46;;;;;;;12.98;2.53;;;7.40;99.90;;;;;;5045210;28;20041;-83
2023/03/04 12:19:44;;;;;;;13.85;2.65;;;7.40;99.90;;;;;;5048887;28;20508;-83
2023/03/04 12:22:26;;;;;;;14.48;2.15;;;7.40;99.90;;;;;;5050067;28;20492;-83
2023/03/04 12:25:13;;;;;;;10.40;2.33;;;7.60;99.90;;;;;;5050191;28;20071;-83
2023/03/04 12:28:08;;;;;;;10.32;1.88;;;7.60;99.90;;;;;;5048023;28;20044;-83
2023/03/04 12:30:59;;;;;;;10.18;2.65;;;7.40;99.90;;;;;;5033311;28;20065;-83
2023/03/04 12:34:03;;;;;;;11.43;2.45;;;7.30;99.90;;;;;;5031651;28;20527;-83
2023/03/04 12:36:28;;;;;;;16.17;2.38;;;7.30;99.90;;;;;;5033014;28;20470;-84
2023/03/04 12:39:15;;;;;;;12.65;2.00;;;7.10;99.90;;;;;;5050725;28;20126;-82
2023/03/04 12:42:00;;;;;;;11.77;2.13;;;7.00;99.90;;;;;;5034394;28;20124;-83
2023/03/04 12:44:28;;;;;;;9.93;2.20;;;6.80;99.90;;;;;;5033792;28;20124;-83
2023/03/04 12:47:22;;;;;;;12.20;2.25;;;6.70;99.90;;;;;;5034121;28;20128;-83
2023/03/04 12:50:21;;;;;;;11.55;2.03;;;6.90;99.90;;;;;;5034510;28;20090;-83
2023/03/04 12:53:13;;;;;;;7.35;1.73;;;7.00;99.90;;;;;;5044364;28;20040;-83
2023/03/04 12:55:43;;;;;;;10.40;2.03;;;7.40;99.90;;;;;;5050113;28;20119;-83
2023/03/04 12:58:18;;;;;;;11.45;1.83;;;8.10;99.90;;;;;;5051115;28;20126;-83
2023/03/04 13:01:11;;;;;;;12.35;2.35;;;8.30;99.90;;;;;;5034229;28;20083;-83
2023/03/04 13:04:10;;;;;;;13.35;2.05;;;8.30;99.90;;;;;;5050583;28;20341;-82